Time;durP1;ratioP1;P1;durP2;ratioP2;P2;SDS_P1;SDS_P2;PMS_P1;PMS_P2;Temp;Humidity;BMP_temperature;BMP_pressure;BME280_temperature;BME280_humidity;BME280_pressure;Samples;Min_cycle;Max_cycle;Signal;HPM_P1;HPM_P2
2021/11/16 00:01:13;;;;;;;38.03;16.95;;;;;;;9.47;68.72;101386.56;5067989;28;20036;-21
2021/11/16 00:03:39;;;;;;;33.85;15.52;;;;;;;9.16;70.21;101374.16;5068050;28;20029;-21
2021/11/16 00:06:04;;;;;;;42.92;18.33;;;;;;;9.17;70.14;101381.94;5049903;28;20051;-21
2021/11/16 00:08:30;;;;;;;28.88;14.02;;;;;;;9.41;68.77;101388.09;5067875;28;20032;-21
2021/11/16 00:10:56;;;;;;;25.95;13.13;;;;;;;9.64;67.99;101385.41;5068119;28;20045;-20
2021/11/16 00:13:21;;;;;;;23.10;11.93;;;;;;;9.67;66.87;101355.75;5067558;28;20061;-20
2021/11/16 00:15:47;;;;;;;21.70;11.65;;;;;;;9.75;67.00;101378.81;5068212;28;20484;-20
2021/11/16 00:18:13;;;;;;;23.25;11.90;;;;;;;9.25;69.15;101379.25;5067643;28;20426;-21
2021/11/16 00:20:42;;;;;;;18.88;10.43;;;;;;;9.31;69.73;101368.88;5067918;28;20032;-21
2021/11/16 00:23:15;;;;;;;17.30;9.70;;;;;;;9.42;69.45;101368.47;5067688;28;20123;-21
2021/11/16 00:25:41;;;;;;;17.40;9.43;;;;;;;9.47;70.11;101373.25;5067644;28;20412;-21
2021/11/16 00:28:06;;;;;;;20.05;11.25;;;;;;;9.65;68.97;101371.91;5071046;28;20032;-23
2021/11/16 00:30:32;;;;;;;18.02;11.27;;;;;;;9.51;68.87;101356.72;5071812;28;20171;-21
2021/11/16 00:32:57;;;;;;;16.98;9.45;;;;;;;9.11;70.17;101353.38;5071525;28;20031;-21
2021/11/16 00:35:23;;;;;;;14.27;8.55;;;;;;;9.34;70.23;101373.84;5071507;28;20032;-21
2021/11/16 00:37:48;;;;;;;15.88;9.10;;;;;;;9.45;69.97;101365.44;5053677;28;20065;-20
2021/11/16 00:40:17;;;;;;;16.65;9.25;;;;;;;9.49;70.00;101355.25;5071135;28;20033;-21
2021/11/16 00:42:43;;;;;;;16.10;8.77;;;;;;;8.87;72.03;101354.38;5071396;28;20044;-21
2021/11/16 00:45:10;;;;;;;14.98;8.93;;;;;;;9.05;71.07;101340.78;5070138;28;20025;-20
2021/11/16 00:47:36;;;;;;;22.20;12.25;;;;;;;9.09;71.07;101347.41;5071061;28;20035;-21
2021/11/16 00:50:02;;;;;;;29.30;14.95;;;;;;;9.37;70.37;101342.34;5071458;28;20032;-21
2021/11/16 00:52:27;;;;;;;20.38;10.73;;;;;;;9.16;71.14;101364.31;5070803;28;20032;-21
2021/11/16 00:54:53;;;;;;;24.85;12.23;;;;;;;8.98;72.02;101350.47;5071148;28;20035;-22
2021/11/16 00:57:18;;;;;;;24.95;13.07;;;;;;;9.47;70.51;101355.44;5071518;28;20540;-21
2021/11/16 00:59:44;;;;;;;21.42;12.23;;;;;;;9.38;70.20;101340.53;5071140;28;20063;-21
2021/11/16 01:02:09;;;;;;;19.70;10.75;;;;;;;9.12;71.54;101365.69;5052852;28;20499;-21
2021/11/16 01:04:35;;;;;;;19.52;11.32;;;;;;;9.05;72.33;101364.72;5071098;28;20031;-21
2021/11/16 01:07:02;;;;;;;18.92;10.90;;;;;;;9.48;70.35;101354.44;5070726;28;20028;-21
2021/11/16 01:09:28;;;;;;;26.47;13.63;;;;;;;9.33;71.12;101350.88;5070871;28;20547;-21
2021/11/16 01:11:53;;;;;;;21.92;13.10;;;;;;;9.35;70.63;101343.56;5052868;28;20040;-21
2021/11/16 01:14:19;;;;;;;22.77;13.52;;;;;;;9.48;70.91;101351.78;5070409;28;20057;-21
2021/11/16 01:16:45;;;;;;;20.60;12.40;;;;;;;9.68;69.70;101356.56;5052704;28;20396;-21
2021/11/16 01:19:10;;;;;;;23.80;13.15;;;;;;;9.69;69.86;101361.72;5070937;28;20068;-20
2021/11/16 01:21:36;;;;;;;20.35;13.88;;;;;;;9.64;69.65;101359.63;5070685;28;20047;-21
2021/11/16 01:24:03;;;;;;;21.02;13.00;;;;;;;9.67;69.83;101349.59;5052763;28;20535;-21
2021/11/16 01:26:28;;;;;;;21.98;12.88;;;;;;;9.89;69.31;101353.19;5070382;28;20140;-22
2021/11/16 01:28:55;;;;;;;20.92;13.98;;;;;;;9.74;69.26;101339.88;5070525;28;20032;-21
2021/11/16 01:31:21;;;;;;;22.13;13.32;;;;;;;9.93;69.27;101351.81;5070238;28;20029;-21
2021/11/16 01:33:54;;;;;;;22.88;14.25;;;;;;;10.11;68.77;101356.78;5070523;28;20047;-21
2021/11/16 01:36:20;;;;;;;22.20;11.98;;;;;;;9.87;69.28;101348.06;5070105;28;20043;-21
2021/11/16 01:38:46;;;;;;;23.27;12.00;;;;;;;9.73;69.93;101341.72;5068924;28;20028;-21
2021/11/16 01:41:12;;;;;;;21.73;13.30;;;;;;;9.51;71.06;101338.09;5070137;28;20412;-21
2021/11/16 01:43:37;;;;;;;23.35;13.95;;;;;;;9.62;70.43;101350.13;5070151;28;20052;-22
2021/11/16 01:46:05;;;;;;;20.38;13.88;;;;;;;9.62;70.72;101337.66;5069986;28;20051;-22
2021/11/16 01:48:32;;;;;;;20.05;12.75;;;;;;;9.75;70.36;101346.88;5070043;28;20087;-20
2021/11/16 01:50:58;;;;;;;21.05;12.60;;;;;;;9.90;69.91;101355.69;5070214;28;20033;-21
2021/11/16 01:53:23;;;;;;;20.50;13.45;;;;;;;9.81;70.45;101354.94;5051960;28;20403;-21
2021/11/16 01:55:49;;;;;;;138.32;62.25;;;;;;;10.00;70.12;101345.56;5070273;28;20404;-21
2021/11/16 01:58:14;;;;;;;32.58;17.23;;;;;;;9.99;69.82;101338.59;5070163;28;20038;-22
2021/11/16 02:00:41;;;;;;;20.30;11.90;;;;;;;9.66;70.23;101327.44;5070144;28;20054;-21
2021/11/16 02:03:11;;;;;;;24.52;13.75;;;;;;;9.44;71.58;101345.16;5070376;28;20558;-22
2021/11/16 02:05:42;;;;;;;23.85;12.65;;;;;;;9.74;70.58;101340.69;5069599;28;20017;-21
2021/11/16 02:08:08;;;;;;;23.70;12.00;;;;;;;10.02;69.77;101342.72;5051992;28;20059;-20
2021/11/16 02:10:34;;;;;;;19.10;11.52;;;;;;;9.88;70.44;101341.72;5069809;28;20044;-21
2021/11/16 02:12:59;;;;;;;21.35;12.70;;;;;;;9.86;70.22;101341.88;5051731;28;20447;-21
2021/11/16 02:15:25;;;;;;;20.95;11.93;;;;;;;9.80;70.50;101334.63;5029676;28;20068;-21
2021/11/16 02:17:50;;;;;;;19.63;11.57;;;;;;;9.76;70.97;101344.00;5029976;28;20033;-21
2021/11/16 02:20:16;;;;;;;19.75;11.43;;;;;;;9.70;70.94;101339.38;5029700;28;20037;-21
2021/11/16 02:22:42;;;;;;;20.05;11.65;;;;;;;9.62;71.88;101334.13;5028923;28;20138;-21
2021/11/16 02:25:08;;;;;;;18.38;11.35;;;;;;;9.77;70.79;101340.34;5029689;28;20021;-22
2021/11/16 02:27:33;;;;;;;19.83;11.50;;;;;;;9.50;71.61;101355.09;5029771;28;20044;-21
2021/11/16 02:29:58;;;;;;;20.48;11.50;;;;;;;9.23;73.14;101341.34;5029808;28;20481;-21
2021/11/16 02:32:25;;;;;;;19.75;11.80;;;;;;;9.40;72.74;101334.03;5029489;28;20033;-21
2021/11/16 02:34:50;;;;;;;19.67;12.32;;;;;;;9.43;72.40;101327.50;5029659;28;20062;-21
2021/11/16 02:37:16;;;;;;;21.48;11.85;;;;;;;9.43;72.23;101332.81;5029516;28;20417;-20
2021/11/16 02:39:41;;;;;;;21.00;11.80;;;;;;;9.47;71.83;101333.31;5029355;28;20029;-21
2021/11/16 02:42:07;;;;;;;19.88;11.48;;;;;;;9.36;71.80;101326.59;5028953;28;20036;-21
2021/11/16 02:44:33;;;;;;;19.02;11.25;;;;;;;9.11;73.13;101339.25;5028089;28;20036;-20
2021/11/16 02:46:58;;;;;;;33.60;13.40;;;;;;;9.23;73.57;101336.00;5029590;28;20032;-21
2021/11/16 02:49:24;;;;;;;27.25;13.02;;;;;;;9.44;72.66;101329.19;5027731;28;20045;-21
2021/11/16 02:51:49;;;;;;;21.70;11.30;;;;;;;9.47;71.83;101328.78;5029296;28;20025;-21
2021/11/16 02:54:18;;;;;;;19.30;10.75;;;;;;;9.57;72.06;101333.88;5028920;28;20033;-21
2021/11/16 02:56:43;;;;;;;;;;;;;;;9.34;72.49;101328.59;5029915;28;20025;-21
2021/11/16 02:59:09;;;;;;;18.58;10.48;;;;;;;9.53;71.64;101333.41;5029096;28;20300;-21
2021/11/16 03:01:35;;;;;;;18.52;10.43;;;;;;;9.84;70.59;101329.75;5028965;28;20035;-22
2021/11/16 03:04:01;;;;;;;18.83;10.35;;;;;;;10.02;69.81;101330.22;5027646;28;20048;-22
2021/11/16 03:06:26;;;;;;;18.98;10.13;;;;;;;9.79;71.16;101332.97;5011125;28;20026;-21
2021/11/16 03:08:52;;;;;;;20.25;11.70;;;;;;;9.79;71.48;101326.84;5029072;28;20029;-21
2021/11/16 03:11:18;;;;;;;23.88;11.48;;;;;;;9.36;72.83;101315.94;5028904;28;20041;-21
2021/11/16 03:13:43;;;;;;;17.85;9.23;;;;;;;9.74;71.41;101330.03;5040453;28;20076;-21
2021/11/16 03:16:15;;;;;;;17.40;9.95;;;;;;;9.59;71.93;101334.53;5068262;28;20033;-21
2021/11/16 03:18:44;;;;;;;16.05;9.20;;;;;;;9.36;73.04;101329.25;5068425;28;20060;-20
2021/11/16 03:21:12;;;;;;;15.23;9.30;;;;;;;9.34;72.60;101323.28;5068810;28;20563;-21
2021/11/16 03:23:38;;;;;;;17.98;9.75;;;;;;;9.44;72.94;101339.81;5068528;28;20040;-23
2021/11/16 03:26:03;;;;;;;18.95;9.82;;;;;;;9.51;73.07;101335.41;5068971;28;20936;-21
2021/11/16 03:28:33;;;;;;;19.05;10.15;;;;;;;9.42;72.79;101336.50;5068332;28;20028;-20
2021/11/16 03:31:17;;;;;;;22.98;11.55;;;;;;;8.87;75.12;101337.56;5068369;28;20070;-22
2021/11/16 03:33:43;;;;;;;19.33;10.23;;;;;;;8.57;76.64;101334.78;5068797;28;20497;-20
2021/11/16 03:36:08;;;;;;;26.38;12.65;;;;;;;8.61;76.88;101330.75;5068031;28;20053;-21
2021/11/16 03:38:34;;;;;;;22.88;11.57;;;;;;;8.74;76.49;101331.00;5050431;28;20062;-20
2021/11/16 03:41:00;;;;;;;21.25;12.93;;;;;;;8.87;75.67;101326.94;5033840;28;20036;-20
2021/11/16 03:43:25;;;;;;;23.27;11.35;;;;;;;8.99;74.97;101329.03;5068172;28;20111;-21
2021/11/16 03:45:52;;;;;;;17.15;9.80;;;;;;;8.94;75.15;101325.25;5068053;28;20408;-21
2021/11/16 03:48:18;;;;;;;17.88;9.57;;;;;;;8.70;76.32;101328.88;5068029;28;20033;-20
2021/11/16 03:50:43;;;;;;;16.77;10.85;;;;;;;8.77;75.88;101325.34;5050092;28;20060;-21
2021/11/16 03:53:10;;;;;;;19.70;10.52;;;;;;;8.66;76.90;101323.06;5068209;28;20063;-20
2021/11/16 03:55:37;;;;;;;15.68;9.63;;;;;;;8.65;77.79;101329.41;5068156;28;20025;-21
2021/11/16 03:58:03;;;;;;;14.38;8.50;;;;;;;8.81;77.32;101331.97;5068147;28;20028;-21
2021/11/16 04:00:33;;;;;;;15.43;8.80;;;;;;;9.02;76.50;101320.69;5068332;28;20028;-20
2021/11/16 04:02:59;;;;;;;21.55;12.98;;;;;;;9.36;74.92;101326.59;5053031;28;20080;-20
2021/11/16 04:05:25;;;;;;;15.68;9.32;;;;;;;9.29;74.21;101321.13;5072327;28;20492;-21
2021/11/16 04:07:54;;;;;;;17.20;9.90;;;;;;;9.53;73.99;101329.91;5054382;28;20089;-20
2021/11/16 04:10:19;;;;;;;17.92;10.13;;;;;;;9.52;73.34;101345.06;5071778;28;20028;-20
2021/11/16 04:12:45;;;;;;;20.52;11.82;;;;;;;9.33;73.57;101334.91;5072027;28;20547;-21
2021/11/16 04:15:12;;;;;;;42.42;22.98;;;;;;;9.31;74.22;101335.09;5071689;28;20105;-20
2021/11/16 04:17:40;;;;;;;20.92;12.40;;;;;;;9.55;72.91;101335.88;5071984;28;20492;-20
2021/11/16 04:20:10;;;;;;;20.80;11.63;;;;;;;9.71;71.99;101330.41;5071759;28;20051;-21
2021/11/16 04:22:36;;;;;;;28.73;16.23;;;;;;;9.44;73.29;101330.00;5071898;28;20059;-20
2021/11/16 04:25:04;;;;;;;34.80;14.52;;;;;;;9.73;72.03;101327.56;5071887;28;20465;-21
2021/11/16 04:27:29;;;;;;;28.30;14.63;;;;;;;9.82;71.62;101327.28;5071822;28;20029;-21
2021/11/16 04:29:54;;;;;;;41.25;20.73;;;;;;;9.63;72.20;101323.31;5071601;28;20067;-21
2021/11/16 04:32:20;;;;;;;50.55;27.75;;;;;;;9.08;73.51;101321.81;5070295;28;20439;-20
2021/11/16 04:34:45;;;;;;;37.92;23.35;;;;;;;9.28;73.57;101345.28;5070065;28;20040;-21
2021/11/16 04:37:11;;;;;;;35.90;20.30;;;;;;;9.06;74.70;101331.81;5071403;28;20036;-21
2021/11/16 04:39:36;;;;;;;30.40;18.63;;;;;;;9.05;74.92;101352.28;5071485;28;20032;-21
2021/11/16 04:42:02;;;;;;;39.00;24.27;;;;;;;9.10;74.92;101338.41;5071156;28;20432;-22
2021/11/16 04:44:28;;;;;;;37.13;22.45;;;;;;;9.50;74.09;101339.09;5071533;28;20112;-21
2021/11/16 04:46:55;;;;;;;54.28;32.10;;;;;;;9.44;73.81;101342.50;5071553;28;20047;-21
2021/11/16 04:49:26;;;;;;;45.10;27.67;;;;;;;9.43;74.08;101349.63;5071296;28;20558;-20
2021/11/16 05:02:40;;;;;;;20.08;11.27;;;;;;;8.80;75.72;101358.75;5071266;28;19955;-21
2021/11/16 05:05:09;;;;;;;20.33;10.98;;;;;;;8.55;76.64;101350.06;5071353;28;20060;-20
2021/11/16 05:07:35;;;;;;;17.80;11.27;;;;;;;8.78;76.13;101350.94;5071196;28;20025;-23
2021/11/16 05:10:01;;;;;;;18.98;11.18;;;;;;;8.87;76.10;101353.53;5071204;28;20036;-21
2021/11/16 05:12:28;;;;;;;22.08;12.63;;;;;;;8.80;75.86;101337.47;5070820;28;20044;-21
2021/11/16 05:14:54;;;;;;;20.27;12.23;;;;;;;8.76;76.19;101342.28;5071140;28;20840;-21
2021/11/16 05:17:20;;;;;;;19.83;10.25;;;;;;;8.57;75.12;101313.50;5070799;28;20032;-21
2021/11/16 05:19:45;;;;;;;16.50;9.15;;;;;;;8.66;74.43;101323.06;5070828;28;20083;-20
2021/11/16 05:22:11;;;;;;;18.70;9.43;;;;;;;8.79;74.10;101336.63;5070372;28;20036;-21
2021/11/16 05:24:36;;;;;;;21.88;11.63;;;;;;;8.75;75.08;101327.34;5070725;28;20403;-20
2021/11/16 05:27:02;;;;;;;60.33;21.35;;;;;;;8.78;75.08;101312.88;5052899;28;20028;-21
2021/11/16 05:29:28;;;;;;;38.28;16.30;;;;;;;9.10;75.22;101353.56;5052856;28;20127;-21
2021/11/16 05:31:53;;;;;;;28.55;12.93;;;;;;;8.79;76.07;101349.13;5070506;28;20028;-21
2021/11/16 05:34:18;;;;;;;17.38;10.30;;;;;;;8.66;76.45;101352.31;5070879;28;20702;-20
2021/11/16 05:36:44;;;;;;;28.75;11.60;;;;;;;8.75;75.60;101334.50;5070610;28;20411;-21
2021/11/16 05:39:09;;;;;;;28.95;13.82;;;;;;;9.05;74.09;101336.31;5070523;28;20101;-20
2021/11/16 05:41:36;;;;;;;28.73;14.02;;;;;;;9.15;73.54;101362.66;5070393;28;20028;-21
2021/11/16 05:44:02;;;;;;;24.30;11.18;;;;;;;9.22;73.25;101358.28;5070301;28;20082;-21
2021/11/16 05:46:27;;;;;;;41.20;17.20;;;;;;;9.25;73.21;101368.59;5070007;28;20020;-21
2021/11/16 05:48:53;;;;;;;79.40;33.28;;;;;;;9.11;73.75;101356.03;5070490;28;20032;-21
2021/11/16 05:51:20;;;;;;;91.10;39.20;;;;;;;9.05;73.63;101359.41;5070271;28;20455;-21
2021/11/16 05:53:51;;;;;;;76.88;33.28;;;;;;;9.40;72.69;101359.84;5052708;28;20032;-21
2021/11/16 05:56:22;;;;;;;68.30;36.30;;;;;;;9.43;72.57;101360.28;5069460;28;20036;-20
2021/11/16 05:58:52;;;;;;;54.47;27.23;;;;;;;9.69;71.08;101375.03;5070147;28;20036;-20
2021/11/16 06:01:17;;;;;;;46.80;25.75;;;;;;;9.67;71.03;101370.91;5069855;28;20024;-21
2021/11/16 06:03:44;;;;;;;29.00;16.27;;;;;;;9.71;71.13;101374.88;5069792;28;20024;-21
2021/11/16 06:06:10;;;;;;;21.55;12.88;;;;;;;9.48;71.59;101381.06;5069550;28;20068;-22
2021/11/16 06:08:36;;;;;;;40.20;19.85;;;;;;;9.05;72.40;101383.34;5069969;28;20491;-21
2021/11/16 06:11:02;;;;;;;47.17;26.85;;;;;;;9.32;72.27;101368.69;5069846;28;20032;-21
2021/11/16 06:13:27;;;;;;;30.00;16.75;;;;;;;9.05;73.17;101372.69;5069509;28;20524;-20
2021/11/16 06:15:53;;;;;;;18.42;10.48;;;;;;;9.22;73.00;101390.22;5069540;28;20048;-20
2021/11/16 06:18:21;;;;;;;48.10;23.60;;;;;;;9.16;73.34;101385.63;5069447;28;20055;-21
2021/11/16 06:20:47;;;;;;;53.55;25.35;;;;;;;9.11;72.59;101387.16;5069362;28;20154;-21
2021/11/16 06:23:12;;;;;;;42.53;22.67;;;;;;;9.09;73.40;101379.31;5051919;28;20032;-21
2021/11/16 06:25:39;;;;;;;29.65;14.45;;;;;;;9.16;73.22;101388.28;5068952;28;20031;-21
2021/11/16 06:28:04;;;;;;;18.65;10.15;;;;;;;9.10;73.85;101391.66;5069581;28;20488;-21
2021/11/16 06:30:30;;;;;;;19.98;10.27;;;;;;;9.25;73.19;101383.72;5069419;28;20031;-20
2021/11/16 06:32:55;;;;;;;17.17;9.68;;;;;;;9.44;72.35;101393.06;5069666;28;20033;-20
2021/11/16 06:35:21;;;;;;;15.48;8.63;;;;;;;9.35;73.12;101396.78;5051444;28;20025;-20
2021/11/16 06:37:47;;;;;;;14.88;9.30;;;;;;;9.22;73.52;101390.22;5069264;28;20032;-21
2021/11/16 06:40:13;;;;;;;15.45;8.57;;;;;;;9.43;72.92;101402.88;5068964;28;20525;-21
2021/11/16 06:42:39;;;;;;;19.65;9.80;;;;;;;9.68;72.22;101394.69;5069001;28;20078;-21
2021/11/16 06:45:05;;;;;;;16.35;10.55;;;;;;;9.42;72.57;101389.75;5069555;28;20036;-21
2021/11/16 06:47:30;;;;;;;17.70;10.05;;;;;;;9.48;71.98;101385.53;5051095;28;20473;-20
2021/11/16 06:49:55;;;;;;;20.45;11.13;;;;;;;9.45;72.34;101400.88;5069255;28;20519;-20
2021/11/16 06:52:21;;;;;;;46.38;21.77;;;;;;;9.63;72.73;101397.06;5068695;28;20036;-21
2021/11/16 06:54:47;;;;;;;27.90;16.23;;;;;;;9.82;71.85;101390.41;5069009;28;20488;-20
2021/11/16 06:57:12;;;;;;;26.60;17.05;;;;;;;9.44;73.26;101382.44;5069191;28;20114;-20
2021/11/16 06:59:39;;;;;;;20.42;12.25;;;;;;;9.12;73.09;101378.16;5068679;28;20021;-21
2021/11/16 07:02:05;;;;;;;18.15;11.82;;;;;;;9.20;74.64;101397.56;5068893;28;20038;-21
2021/11/16 07:04:38;;;;;;;23.08;13.80;;;;;;;9.23;74.60;101399.88;5068481;28;20115;-21
2021/11/16 07:07:04;;;;;;;22.98;14.98;;;;;;;9.15;74.70;101383.94;5068906;28;20385;-20
2021/11/16 07:09:35;;;;;;;22.65;15.13;;;;;;;9.51;73.74;101380.69;5068957;28;20028;-21
2021/11/16 07:12:00;;;;;;;25.92;15.70;;;;;;;9.62;73.20;101398.06;5068546;28;20032;-21
2021/11/16 07:14:30;;;;;;;36.13;18.67;;;;;;;9.59;72.78;101396.59;5068469;28;20545;-21
2021/11/16 07:16:55;;;;;;;23.83;15.73;;;;;;;9.41;73.73;101399.56;5068590;28;20432;-20
2021/11/16 07:19:39;;;;;;;25.35;14.43;;;;;;;9.43;73.34;101399.41;5069099;28;20025;-21
2021/11/16 07:22:10;;;;;;;20.70;11.30;;;;;;;9.27;74.40;101403.00;5068626;28;20040;-20
2021/11/16 07:24:41;;;;;;;20.30;11.38;;;;;;;9.29;74.95;101394.84;5068437;28;20111;-21
2021/11/16 07:27:07;;;;;;;25.60;13.10;;;;;;;9.34;75.00;101397.81;5068337;28;20032;-21
2021/11/16 07:29:44;;;;;;;30.02;15.88;;;;;;;9.56;73.85;101391.66;5068177;28;20039;-21
2021/11/16 07:32:20;;;;;;;39.25;17.90;;;;;;;9.62;74.43;101396.25;5068390;28;20063;-21
2021/11/16 07:34:46;;;;;;;44.80;19.88;;;;;;;9.58;73.89;101394.09;5068444;28;20147;-21
2021/11/16 07:37:20;;;;;;;33.78;16.38;;;;;;;9.40;75.08;101402.44;5068373;28;20112;-20
2021/11/16 07:39:50;;;;;;;25.98;15.63;;;;;;;9.36;75.23;101401.13;5068192;28;20056;-22
2021/11/16 07:42:16;;;;;;;28.10;17.60;;;;;;;9.33;75.53;101385.50;5068161;28;20028;-20
2021/11/16 07:44:43;;;;;;;26.70;15.82;;;;;;;9.17;76.60;101389.91;5068477;28;20048;-21
2021/11/16 07:47:08;;;;;;;23.60;13.38;;;;;;;9.40;76.03;101386.44;5034027;28;20095;-21
2021/11/16 07:49:34;;;;;;;28.10;15.48;;;;;;;9.58;74.93;101394.09;5068032;28;20036;-21
2021/11/16 07:51:59;;;;;;;44.28;22.48;;;;;;;9.90;74.23;101390.31;5033582;28;20021;-20
2021/11/16 07:54:30;;;;;;;31.80;16.95;;;;;;;9.92;73.35;101385.63;5068058;28;20025;-21
2021/11/16 07:57:03;;;;;;;25.70;12.75;;;;;;;9.60;73.28;101392.94;5067993;28;20393;-21
2021/11/16 07:59:28;;;;;;;24.58;14.30;;;;;;;9.79;73.47;101401.44;5068256;28;20036;-21
2021/11/16 08:02:04;;;;;;;34.75;17.98;;;;;;;9.85;73.37;101395.38;5068173;28;20081;-21
2021/11/16 08:04:42;;;;;;;55.28;26.17;;;;;;;9.70;74.23;101391.84;5067932;28;20452;-21
2021/11/16 08:07:31;;;;;;;18.40;11.23;;;;;;;9.64;74.59;101412.88;5067859;28;20043;-22
2021/11/16 08:10:03;;;;;;;20.40;11.00;;;;;;;9.62;75.57;101406.91;5053449;28;20119;-21
2021/11/16 08:12:38;;;;;;;20.15;11.10;;;;;;;9.72;74.87;101405.81;5067412;28;20044;-21
2021/11/16 08:15:11;;;;;;;21.95;12.38;;;;;;;9.84;75.26;101418.50;5067954;28;20079;-22
2021/11/16 08:17:38;;;;;;;21.60;12.05;;;;;;;9.51;77.04;101419.81;5067701;28;20025;-21
2021/11/16 08:20:09;;;;;;;29.05;18.08;;;;;;;9.47;78.59;101422.00;5068192;28;20048;-22
2021/11/16 08:22:35;;;;;;;46.63;28.20;;;;;;;9.60;78.22;101427.56;5058800;28;20170;-21
2021/11/16 08:25:00;;;;;;;31.33;16.30;;;;;;;9.54;77.87;101430.09;5056163;28;20247;-22
2021/11/16 08:27:36;;;;;;;28.08;15.05;;;;;;;9.81;77.06;101428.72;5058740;28;20159;-21
2021/11/16 08:30:10;;;;;;;24.17;13.95;;;;;;;10.01;76.10;101429.88;5038923;28;20039;-21
2021/11/16 08:32:39;;;;;;;23.08;14.23;;;;;;;10.24;75.64;101432.44;5057061;28;20079;-21
2021/11/16 08:35:13;;;;;;;24.83;14.18;;;;;;;9.67;77.67;101418.84;5055997;28;20090;-23
2021/11/16 08:37:39;;;;;;;22.95;14.25;;;;;;;9.89;76.54;101423.31;5038960;28;20127;-20
2021/11/16 08:40:09;;;;;;;26.80;15.43;;;;;;;9.94;76.79;101423.59;5040152;28;20044;-22
2021/11/16 08:42:39;;;;;;;23.90;14.25;;;;;;;9.76;77.61;101418.59;5050543;28;20043;-21
2021/11/16 08:45:16;;;;;;;28.73;15.45;;;;;;;9.71;78.20;101414.81;5052859;28;20099;-21
2021/11/16 08:47:47;;;;;;;35.38;17.48;;;;;;;9.69;76.91;101393.69;5058233;28;20029;-21
2021/11/16 08:50:18;;;;;;;32.60;18.08;;;;;;;9.83;76.91;101405.38;5059477;28;20100;-22
2021/11/16 08:52:44;;;;;;;29.65;16.17;;;;;;;9.75;76.81;101402.81;5060791;28;20037;-20
2021/11/16 08:55:11;;;;;;;28.98;16.00;;;;;;;9.87;77.03;101393.38;5061433;28;20017;-21
2021/11/16 08:57:37;;;;;;;31.10;17.23;;;;;;;9.62;75.92;101417.56;5060404;28;20029;-21
2021/11/16 09:00:34;;;;;;;25.05;14.30;;;;;;;9.87;76.88;101409.34;5060308;28;20472;-21
2021/11/16 09:03:04;;;;;;;26.35;15.68;;;;;;;9.67;77.21;101410.88;5049746;28;20102;-21
2021/11/16 09:05:34;;;;;;;33.55;16.00;;;;;;;9.92;76.54;101401.63;5051019;28;20464;-21
2021/11/16 09:08:02;;;;;;;29.75;16.13;;;;;;;9.71;75.91;101398.84;5051447;28;20043;-21
2021/11/16 09:10:37;;;;;;;21.90;13.17;;;;;;;9.71;76.23;101389.00;5051034;28;20036;-21
2021/11/16 09:13:04;;;;;;;28.60;15.63;;;;;;;9.76;77.14;101383.13;5050710;28;20276;-20
2021/11/16 09:15:42;;;;;;;24.35;15.77;;;;;;;9.81;77.40;101399.41;5033060;28;20028;-21
2021/11/16 09:18:13;;;;;;;27.08;15.18;;;;;;;9.76;76.83;101391.94;5050441;28;20041;-21
2021/11/16 09:20:39;;;;;;;20.13;12.55;;;;;;;9.62;75.97;101392.75;5033175;28;20036;-21
2021/11/16 09:23:05;;;;;;;23.33;14.88;;;;;;;10.03;75.50;101382.53;5033035;28;20033;-21
2021/11/16 09:25:35;;;;;;;23.35;13.60;;;;;;;9.98;73.59;101365.44;5050683;28;20449;-21
2021/11/16 09:28:12;;;;;;;26.33;15.43;;;;;;;9.96;74.22;101375.44;5050912;28;20440;-20
2021/11/16 09:30:42;;;;;;;25.80;15.32;;;;;;;9.72;74.40;101379.19;5050803;28;20040;-21
2021/11/16 09:33:20;;;;;;;26.52;14.30;;;;;;;9.59;76.10;101369.16;5050713;28;20032;-21
2021/11/16 09:35:58;;;;;;;22.88;13.50;;;;;;;9.51;76.48;101354.06;5050710;28;20151;-22
2021/11/16 09:38:51;;;;;;;21.25;12.75;;;;;;;9.83;75.88;101376.91;5032515;28;20049;-20
2021/11/16 09:41:37;;;;;;;28.05;14.75;;;;;;;10.00;75.12;101376.72;5050499;28;20033;-20
2021/11/16 09:44:12;;;;;;;20.48;11.93;;;;;;;9.79;75.19;101377.47;5050310;28;20041;-20
2021/11/16 09:47:02;;;;;;;20.98;11.35;;;;;;;9.72;74.70;101341.88;5049890;28;20032;-21
2021/11/16 09:49:37;;;;;;;21.52;11.77;;;;;;;9.96;75.41;101365.59;5049801;28;20037;-21
2021/11/16 09:52:04;;;;;;;21.65;13.57;;;;;;;10.13;73.03;101370.75;5050474;28;20021;-20
2021/11/16 09:54:29;;;;;;;20.05;12.07;;;;;;;9.84;73.51;101356.41;5049947;28;20508;-20
2021/11/16 09:57:08;;;;;;;18.85;11.55;;;;;;;9.50;74.52;101343.56;5050289;28;20068;-20
2021/11/16 09:59:33;;;;;;;;;;;;;;;9.73;75.34;101356.88;5049577;28;20033;-21
2021/11/16 10:01:59;;;;;;;22.58;12.57;;;;;;;9.99;74.81;101354.59;5050396;28;20162;-21
2021/11/16 10:04:29;;;;;;;19.35;12.02;;;;;;;9.88;74.77;101347.03;5049761;28;20041;-21
2021/11/16 10:06:55;;;;;;;19.25;11.18;;;;;;;9.79;74.21;101348.16;5049847;28;20123;-22
2021/11/16 10:09:20;;;;;;;20.95;12.35;;;;;;;9.68;74.83;101329.94;5050256;28;20040;-21
2021/11/16 10:11:46;;;;;;;21.30;11.80;;;;;;;9.77;73.45;101339.50;5050147;28;20033;-21
2021/11/16 10:14:15;;;;;;;21.05;11.80;;;;;;;9.82;74.83;101326.47;5011377;28;20060;-20
2021/11/16 10:16:41;;;;;;;17.65;10.57;;;;;;;9.89;74.79;101338.06;5030278;28;20033;-20
2021/11/16 10:19:07;;;;;;;18.52;10.00;;;;;;;10.06;73.79;101334.19;5030038;28;20030;-21
2021/11/16 10:21:34;;;;;;;16.63;10.10;;;;;;;10.43;72.07;101328.94;5029491;28;20029;-21
2021/11/16 10:24:00;;;;;;;18.45;10.23;;;;;;;10.45;70.91;101325.06;5029759;28;20034;-21
2021/11/16 10:26:32;;;;;;;17.38;10.80;;;;;;;10.65;71.63;101327.16;5029218;28;20073;-20
2021/11/16 10:28:57;;;;;;;17.80;9.77;;;;;;;10.25;70.91;101331.97;5029576;28;20044;-21
2021/11/16 10:31:32;;;;;;;18.63;11.00;;;;;;;10.03;72.30;101315.91;5012247;28;20381;-20
2021/11/16 10:33:58;;;;;;;19.48;11.75;;;;;;;10.13;73.43;101307.59;5029684;28;20111;-21
2021/11/16 10:36:24;;;;;;;15.18;9.48;;;;;;;10.35;71.62;101316.53;5029300;28;20058;-21
2021/11/16 10:38:53;;;;;;;19.50;11.32;;;;;;;10.51;70.99;101304.81;5029511;28;20036;-20
2021/11/16 10:41:29;;;;;;;21.40;13.15;;;;;;;10.60;70.95;101310.88;5029293;28;20480;-20
2021/11/16 10:44:00;;;;;;;19.05;10.60;;;;;;;10.82;69.71;101309.88;5029430;28;20029;-21
2021/11/16 10:46:30;;;;;;;22.52;12.90;;;;;;;11.03;70.08;101287.72;5029184;28;20038;-21
2021/11/16 10:48:56;;;;;;;23.23;14.43;;;;;;;11.32;69.71;101301.91;5029266;28;20029;-21
2021/11/16 10:51:27;;;;;;;22.13;14.38;;;;;;;11.45;68.01;101280.63;5028159;28;20048;-21
2021/11/16 10:53:54;;;;;;;19.67;11.82;;;;;;;11.27;68.45;101289.13;5029007;28;20459;-21
2021/11/16 10:56:24;;;;;;;19.10;10.85;;;;;;;10.86;68.60;101296.97;5028936;28;20041;-21
2021/11/16 10:58:49;;;;;;;19.60;10.98;;;;;;;11.00;70.39;101298.75;5028910;28;20029;-21
2021/11/16 11:01:20;;;;;;;18.65;10.93;;;;;;;11.52;68.65;101280.66;5029043;28;20040;-20
2021/11/16 11:03:47;;;;;;;17.88;10.15;;;;;;;11.57;67.14;101288.13;5027730;28;20486;-21
2021/11/16 11:06:26;;;;;;;16.55;10.15;;;;;;;12.02;65.32;101297.47;5028710;28;20041;-20
2021/11/16 11:08:55;;;;;;;15.88;8.65;;;;;;;12.12;64.17;101293.59;5027716;28;20038;-22
2021/11/16 11:11:32;;;;;;;17.58;9.73;;;;;;;12.20;64.90;101293.44;5028429;28;20033;-20
2021/11/16 11:14:02;;;;;;;16.67;9.98;;;;;;;12.21;66.19;101279.03;5036343;28;20049;-21
2021/11/16 11:16:28;;;;;;;13.68;9.10;;;;;;;11.70;65.15;101260.66;5048348;28;20039;-20
2021/11/16 11:18:54;;;;;;;15.73;9.68;;;;;;;11.27;66.87;101275.78;5048510;28;20037;-21
2021/11/16 11:21:33;;;;;;;16.67;9.50;;;;;;;11.18;68.34;101266.25;5048474;28;20033;-20
2021/11/16 11:24:00;;;;;;;15.52;9.40;;;;;;;10.82;69.16;101256.50;5048506;28;20036;-20
2021/11/16 11:29:16;;;;;;;16.45;9.90;;;;;;;10.88;69.18;101272.78;5048848;28;20559;-21
2021/11/16 11:31:43;;;;;;;14.75;9.18;;;;;;;10.93;69.31;101262.34;5048413;28;20413;-21
2021/11/16 11:34:09;;;;;;;16.42;9.48;;;;;;;11.15;67.67;101257.81;5048226;28;20032;-21